Time;durP1;ratioP1;P1;durP2;ratioP2;P2;SDS_P1;SDS_P2;PMS_P1;PMS_P2;Temp;Humidity;BMP_temperature;BMP_pressure;BME280_temperature;BME280_humidity;BME280_pressure;Samples;Min_cycle;Max_cycle;Signal;HPM_P1;HPM_P2
2022/06/20 00:01:01;;;;;;;2.23;2.13;;;;;;;23.80;69.88;94738.56;4376116;32;20185;-58
2022/06/20 00:03:35;;;;;;;3.70;3.20;;;;;;;23.78;69.98;94736.25;4376761;32;20181;-59
2022/06/20 00:06:00;;;;;;;3.00;2.73;;;;;;;23.76;69.66;94735.09;4370323;32;20189;-58
2022/06/20 00:08:26;;;;;;;3.53;2.50;;;;;;;23.74;69.74;94734.69;4379002;32;20183;-58
2022/06/20 00:10:52;;;;;;;2.43;2.23;;;;;;;23.74;69.81;94732.00;4379037;32;20217;-59
2022/06/20 00:13:28;;;;;;;2.30;2.20;;;;;;;23.71;69.71;94744.38;4380828;32;20257;-58
2022/06/20 00:15:56;;;;;;;3.13;2.93;;;;;;;23.67;69.79;94735.50;4381389;32;20199;-58
2022/06/20 00:18:21;;;;;;;2.37;2.27;;;;;;;23.66;70.08;94731.25;4379312;32;20190;-58
2022/06/20 00:20:48;;;;;;;2.63;2.43;;;;;;;23.66;69.98;94738.62;4376595;32;20259;-58
2022/06/20 00:23:14;;;;;;;3.17;2.97;;;;;;;23.63;70.15;94732.81;4383487;32;20180;-58
2022/06/20 00:25:41;;;;;;;2.67;2.53;;;;;;;23.62;70.28;94733.19;4387135;32;20334;-58
2022/06/20 00:28:07;;;;;;;2.33;2.23;;;;;;;23.61;70.56;94726.25;4380725;32;20240;-58
2022/06/20 00:30:32;;;;;;;2.23;2.13;;;;;;;23.58;70.48;94727.00;4380014;32;20192;-58
2022/06/20 00:32:58;;;;;;;2.43;2.33;;;;;;;23.58;70.57;94716.94;4392719;32;20262;-58
2022/06/20 00:35:23;;;;;;;2.17;2.07;;;;;;;23.58;70.71;94722.38;4381800;32;20196;-58
2022/06/20 00:37:50;;;;;;;2.30;2.20;;;;;;;23.55;70.92;94719.66;4383145;32;20231;-55
2022/06/20 00:40:28;;;;;;;3.30;3.10;;;;;;;23.54;71.08;94726.25;4384417;32;20184;-58
2022/06/20 00:42:54;;;;;;;1.67;1.60;;;;;;;23.53;71.06;94725.47;4367767;32;20267;-58
2022/06/20 00:45:22;;;;;;;3.07;2.57;;;;;;;23.53;71.28;94722.00;4377298;32;20188;-58
2022/06/20 00:47:50;;;;;;;2.63;2.43;;;;;;;23.47;71.73;94727.03;4381473;32;20216;-58
2022/06/20 00:50:23;;;;;;;3.10;2.83;;;;;;;23.44;71.82;94722.38;4371352;32;20207;-59
2022/06/20 00:53:00;;;;;;;3.57;2.80;;;;;;;23.44;72.01;94718.91;4383877;32;20219;-58
2022/06/20 00:55:38;;;;;;;12.60;2.77;;;;;;;23.40;72.22;94716.19;4385543;32;20204;-58
2022/06/20 00:58:13;;;;;;;2.63;2.53;;;;;;;23.38;72.30;94718.53;4378771;32;20260;-58
2022/06/20 01:00:40;;;;;;;2.43;2.10;;;;;;;23.37;72.51;94716.97;4372514;32;20305;-58
2022/06/20 01:03:26;;;;;;;2.47;2.37;;;;;;;23.37;72.49;94705.38;4385592;32;20211;-58
2022/06/20 01:06:19;;;;;;;2.53;2.43;;;;;;;23.34;72.50;94706.91;4375958;32;20188;-58
2022/06/20 01:08:49;;;;;;;3.50;3.20;;;;;;;23.34;72.72;94716.97;4378350;32;20200;-59
2022/06/20 01:11:17;;;;;;;2.47;2.37;;;;;;;23.32;72.77;94714.66;4393239;32;20203;-58
2022/06/20 01:13:44;;;;;;;2.67;2.50;;;;;;;23.28;73.12;94714.66;4365911;32;20219;-58
2022/06/20 01:16:12;;;;;;;2.70;2.50;;;;;;;23.28;72.95;94717.34;4375371;32;20181;-58
2022/06/20 01:18:40;;;;;;;2.70;2.57;;;;;;;23.26;73.09;94717.00;4385029;32;20189;-58
2022/06/20 01:21:19;;;;;;;5.23;3.17;;;;;;;23.26;72.97;94711.59;4368921;32;20185;-58
2022/06/20 01:24:12;;;;;;;2.83;2.63;;;;;;;23.26;73.17;94710.81;4378600;32;20189;-59
2022/06/20 01:26:53;;;;;;;2.73;2.63;;;;;;;23.23;73.48;94711.59;4388300;32;20196;-58
2022/06/20 01:29:18;;;;;;;2.77;2.57;;;;;;;23.23;73.62;94715.06;4380113;32;20262;-58
2022/06/20 01:31:56;;;;;;;3.63;3.40;;;;;;;23.20;73.88;94718.56;4384772;32;20193;-58
2022/06/20 01:34:22;;;;;;;4.67;2.00;;;;;;;23.21;73.49;94716.63;4384124;32;20189;-58
2022/06/20 01:39:39;;;;;;;2.97;2.27;;;;;;;23.18;73.19;94717.38;4383458;32;20191;-58
2022/06/20 01:42:21;;;;;;;2.60;2.40;;;;;;;23.20;72.93;94717.78;4383586;32;20185;-58
2022/06/20 01:45:00;;;;;;;2.67;2.47;;;;;;;23.17;72.72;94719.31;4381581;32;20267;-58
2022/06/20 01:47:26;;;;;;;2.00;1.90;;;;;;;23.19;72.46;94708.88;4372523;32;20203;-58
2022/06/20 01:49:55;;;;;;;2.90;2.73;;;;;;;23.18;72.43;94715.47;4390115;32;20177;-58
2022/06/20 01:52:37;;;;;;;1.93;1.83;;;;;;;23.18;72.81;94720.88;4374337;32;20193;-59
2022/06/20 01:55:16;;;;;;;2.00;1.80;;;;;;;23.18;72.70;94720.88;4379541;32;20239;-59
2022/06/20 01:57:46;;;;;;;2.00;1.90;;;;;;;23.17;73.46;94724.72;4377927;32;20211;-59
2022/06/20 02:00:22;;;;;;;2.80;2.07;;;;;;;23.16;73.36;94720.47;4374955;32;20188;-58
2022/06/20 02:03:03;;;;;;;2.37;2.27;;;;;;;23.12;73.04;94722.41;4382588;32;20200;-59
2022/06/20 02:05:32;;;;;;;2.33;2.13;;;;;;;23.13;72.77;94723.19;4391642;32;20192;-59
2022/06/20 02:08:01;;;;;;;3.07;2.87;;;;;;;23.13;72.73;94737.50;4378945;32;20217;-58
2022/06/20 02:10:35;;;;;;;3.00;2.77;;;;;;;23.13;72.31;94748.31;4368844;32;20223;-58
2022/06/20 02:13:03;;;;;;;17.80;2.93;;;;;;;23.09;72.46;94739.41;4383644;32;20198;-58
2022/06/20 02:15:31;;;;;;;3.33;3.00;;;;;;;23.07;72.15;94736.31;4370452;32;20244;-57
2022/06/20 02:18:02;;;;;;;10.23;3.40;;;;;;;23.06;71.97;94740.22;4376610;32;20200;-58
2022/06/20 02:20:33;;;;;;;2.70;2.60;;;;;;;23.08;71.70;94737.09;4380437;32;20196;-59
2022/06/20 02:22:59;;;;;;;3.23;2.97;;;;;;;23.08;71.53;94742.50;4364611;32;20189;-59
2022/06/20 02:25:31;;;;;;;2.13;1.93;;;;;;;23.03;71.29;94730.16;4380688;32;20192;-59
2022/06/20 02:28:12;;;;;;;3.33;2.60;;;;;;;23.07;71.42;94735.59;4375317;32;20220;-58
2022/06/20 02:30:38;;;;;;;3.13;2.83;;;;;;;23.07;70.93;94730.91;4373955;32;20188;-59
2022/06/20 02:33:25;;;;;;;2.97;2.77;;;;;;;23.07;71.16;94725.50;4369657;32;20185;-59
2022/06/20 02:35:53;;;;;;;2.87;2.67;;;;;;;23.08;71.33;94721.63;4389008;32;20197;-58
2022/06/20 02:38:21;;;;;;;5.43;2.23;;;;;;;23.08;70.64;94727.06;4385191;32;20230;-59
2022/06/20 02:40:50;;;;;;;2.63;2.43;;;;;;;23.08;70.33;94729.75;4385255;32;20202;-59
2022/06/20 02:43:21;;;;;;;1.63;1.63;;;;;;;23.08;70.79;94734.41;4390451;32;20241;-59
2022/06/20 02:45:49;;;;;;;5.23;2.30;;;;;;;23.08;70.07;94732.47;4389803;32;20184;-59
2022/06/20 02:48:16;;;;;;;13.30;3.30;;;;;;;23.08;70.07;94737.88;4385198;32;20246;-59
2022/06/20 02:50:50;;;;;;;2.07;1.97;;;;;;;23.10;71.12;94734.78;4383794;32;20203;-59
2022/06/20 02:53:22;;;;;;;5.60;3.10;;;;;;;23.09;69.86;94727.81;4382231;32;20229;-59
2022/06/20 02:55:49;;;;;;;2.23;2.13;;;;;;;23.07;69.67;94727.47;4390036;32;20222;-59
2022/06/20 02:58:22;;;;;;;3.83;2.47;;;;;;;23.08;69.19;94727.06;4376377;32;20192;-59
2022/06/20 03:01:13;;;;;;;3.07;2.87;;;;;;;23.07;69.75;94730.91;4385132;32;20172;-59
2022/06/20 03:03:44;;;;;;;2.43;2.30;;;;;;;23.06;70.04;94736.75;4373216;32;20252;-59
2022/06/20 03:06:22;;;;;;;2.33;2.23;;;;;;;23.06;70.06;94734.81;4382554;32;20267;-59
2022/06/20 03:08:47;;;;;;;3.00;2.80;;;;;;;23.05;68.87;94733.25;4394402;32;20299;-59
2022/06/20 03:11:13;;;;;;;3.07;2.17;;;;;;;23.03;69.04;94735.59;4374317;32;20230;-59
2022/06/20 03:13:41;;;;;;;2.40;2.23;;;;;;;23.02;69.47;94728.63;4370600;32;20317;-58
2022/06/20 03:16:09;;;;;;;2.87;2.50;;;;;;;23.00;68.92;94722.03;4383187;32;20235;-59
2022/06/20 03:18:40;;;;;;;2.30;1.90;;;;;;;22.99;68.50;94720.50;4376373;32;20196;-58
2022/06/20 03:21:10;;;;;;;3.10;2.87;;;;;;;23.01;69.04;94718.94;4375032;32;20193;-59
2022/06/20 03:23:36;;;;;;;1.80;1.73;;;;;;;23.02;68.15;94725.91;4379124;32;20229;-59
2022/06/20 03:26:06;;;;;;;3.50;3.20;;;;;;;23.02;68.19;94725.91;4381167;32;20222;-59
2022/06/20 03:28:33;;;;;;;2.40;2.20;;;;;;;23.01;67.08;94724.38;4381361;32;20180;-58
2022/06/20 03:31:00;;;;;;;2.10;2.00;;;;;;;23.04;68.61;94728.22;4370728;32;20181;-59
2022/06/20 03:33:26;;;;;;;2.30;2.20;;;;;;;23.00;68.64;94725.53;4373547;32;20243;-59
2022/06/20 03:36:08;;;;;;;2.20;2.07;;;;;;;23.02;69.50;94727.84;4379068;32;20259;-58
2022/06/20 03:38:37;;;;;;;1.87;1.77;;;;;;;23.01;70.56;94727.06;4369533;32;20185;-59
2022/06/20 03:41:11;;;;;;;4.90;2.43;;;;;;;22.98;68.69;94729.78;4378391;32;20240;-58
2022/06/20 03:43:39;;;;;;;2.60;2.03;;;;;;;23.00;68.60;94733.66;4382894;32;20204;-59
2022/06/20 03:46:21;;;;;;;3.23;2.20;;;;;;;22.99;67.70;94726.69;4386069;32;20221;-59
2022/06/20 03:49:10;;;;;;;3.20;2.10;;;;;;;23.02;67.41;94725.13;4378823;32;20231;-59
2022/06/20 03:51:45;;;;;;;1.50;1.50;;;;;;;23.02;68.07;94720.50;4379061;32;20241;-59
2022/06/20 03:54:17;;;;;;;2.23;2.07;;;;;;;23.00;67.28;94725.53;4388145;32;20202;-59
2022/06/20 03:56:55;;;;;;;1.77;1.67;;;;;;;23.03;68.02;94730.16;4368058;32;20188;-59
2022/06/20 03:59:30;;;;;;;1.80;1.70;;;;;;;23.01;68.62;94732.47;4377408;32;20232;-58
2022/06/20 04:02:01;;;;;;;2.23;2.13;;;;;;;23.02;68.18;94739.44;4373008;32;20235;-59
2022/06/20 04:04:33;;;;;;;3.07;2.97;;;;;;;23.02;68.64;94735.97;4381500;32;20196;-59
2022/06/20 04:07:07;;;;;;;2.73;2.63;;;;;;;23.02;68.91;94736.75;4377164;32;20260;-59
2022/06/20 04:12:36;;;;;;;5.50;3.30;;;;;;;23.03;69.21;94742.91;4377944;32;20302;-59
2022/06/20 04:15:23;;;;;;;2.73;2.13;;;;;;;23.03;68.25;94748.34;4378460;32;20181;-59
2022/06/20 04:18:34;;;;;;;3.10;2.90;;;;;;;23.04;68.14;94747.94;4381733;32;20233;-59
2022/06/20 04:21:31;;;;;;;2.00;1.97;;;;;;;23.04;67.76;94747.94;4362592;32;20215;-59
2022/06/20 04:24:35;;;;;;;3.17;2.30;;;;;;;23.03;67.55;94759.94;4369797;32;20239;-59
2022/06/20 04:27:06;;;;;;;2.07;1.97;;;;;;;23.04;68.09;94758.78;4327304;32;20244;-59
2022/06/20 04:29:41;;;;;;;2.90;2.40;;;;;;;23.06;68.30;94758.38;4374489;32;20197;-59
2022/06/20 04:32:12;;;;;;;1.60;1.60;;;;;;;23.05;67.60;94760.31;4371480;32;20198;-59
2022/06/20 04:34:50;;;;;;;5.13;2.43;;;;;;;23.07;68.98;94763.38;4385084;32;20192;-58
2022/06/20 04:37:25;;;;;;;2.33;2.00;;;;;;;23.06;68.99;94767.28;4381605;32;20188;-59
2022/06/20 04:40:13;;;;;;;2.10;2.00;;;;;;;23.07;67.98;94768.81;4373254;32;20206;-58
2022/06/20 04:42:45;;;;;;;2.83;2.60;;;;;;;23.09;67.85;94788.13;4365963;32;20207;-59
2022/06/20 04:45:22;;;;;;;5.43;3.23;;;;;;;23.11;68.98;94793.16;4378988;32;20191;-58
2022/06/20 04:47:55;;;;;;;2.43;2.27;;;;;;;23.13;68.43;94796.25;4367498;32;20218;-59
2022/06/20 04:50:24;;;;;;;2.13;2.03;;;;;;;23.16;68.80;94792.78;4377535;32;20191;-58
2022/06/20 04:52:55;;;;;;;2.30;2.20;;;;;;;23.18;67.95;94795.87;4376309;32;20252;-58
2022/06/20 04:55:26;;;;;;;7.27;2.93;;;;;;;23.21;68.27;94795.13;4374613;32;20223;-59
2022/06/20 04:57:54;;;;;;;2.77;2.60;;;;;;;23.20;68.12;94804.41;4377427;32;20181;-58
2022/06/20 05:00:24;;;;;;;2.67;2.33;;;;;;;23.24;67.46;94805.19;4378283;32;20208;-57
2022/06/20 05:02:53;;;;;;;2.83;2.70;;;;;;;23.23;69.02;94806.34;4367359;32;20284;-58
2022/06/20 05:05:24;;;;;;;2.17;2.07;;;;;;;23.29;67.25;94802.84;4381983;32;20184;-59
2022/06/20 05:07:50;;;;;;;2.00;1.90;;;;;;;23.33;67.23;94805.53;4378726;32;20248;-53
2022/06/20 05:10:33;;;;;;;2.20;2.20;;;;;;;23.35;66.66;94816.00;4373253;32;20233;-58
2022/06/20 05:13:04;;;;;;;2.30;1.87;;;;;;;23.42;66.01;94813.28;4374588;32;20185;-59
2022/06/20 05:15:41;;;;;;;2.03;1.93;;;;;;;23.51;65.20;94813.66;4377307;32;20176;-59
2022/06/20 05:18:26;;;;;;;2.60;2.47;;;;;;;23.52;65.51;94821.41;4368727;32;20185;-58
2022/06/20 05:21:24;;;;;;;2.33;2.23;;;;;;;23.53;65.40;94822.97;4368161;32;20180;-59
2022/06/20 05:23:53;;;;;;;1.77;1.67;;;;;;;23.54;64.89;94821.03;4375908;32;20226;-58
2022/06/20 05:26:25;;;;;;;2.53;2.43;;;;;;;23.57;64.36;94836.50;4380146;32;20200;-59
2022/06/20 05:28:55;;;;;;;2.10;2.00;;;;;;;23.59;63.73;94831.50;4382898;32;20189;-59
2022/06/20 05:31:29;;;;;;;5.83;2.83;;;;;;;23.62;63.58;94828.78;4378589;32;20273;-58
2022/06/20 05:34:07;;;;;;;25.60;4.30;;;;;;;23.61;64.08;94834.59;4376652;32;20245;-56
2022/06/20 05:37:17;;;;;;;9.77;3.13;;;;;;;23.57;65.67;94836.50;4369479;32;20196;-57
2022/06/20 05:39:53;;;;;;;2.57;2.47;;;;;;;23.47;64.48;94845.41;4371693;32;20188;-56
2022/06/20 05:42:19;;;;;;;2.57;2.37;;;;;;;23.45;63.89;94848.50;4373995;32;20189;-56
2022/06/20 05:44:45;;;;;;;5.00;2.33;;;;;;;23.50;63.51;94855.44;4382699;32;20207;-56
2022/06/20 05:47:22;;;;;;;2.10;2.00;;;;;;;23.40;63.41;94856.22;4387076;32;20215;-57
2022/06/20 05:49:55;;;;;;;3.43;2.13;;;;;;;23.42;63.06;94868.22;4385096;32;20231;-57
2022/06/20 05:52:25;;;;;;;2.80;2.57;;;;;;;23.36;63.29;94866.28;4378797;32;20197;-56
2022/06/20 05:55:03;;;;;;;3.47;1.87;;;;;;;23.42;62.84;94875.56;4378352;32;20204;-52
2022/06/20 05:57:32;;;;;;;3.00;2.90;;;;;;;23.44;62.92;94882.16;4371828;32;20176;-57
2022/06/20 06:00:05;;;;;;;2.37;2.27;;;;;;;23.53;62.39;94884.50;4375820;32;20201;-55
2022/06/20 06:02:42;;;;;;;1.83;1.73;;;;;;;23.38;63.28;94893.75;4379093;32;20248;-54
2022/06/20 06:05:18;;;;;;;2.07;1.97;;;;;;;23.51;61.41;94900.31;4388322;32;20185;-56
2022/06/20 06:07:53;;;;;;;2.83;2.17;;;;;;;23.52;62.07;94901.91;4357155;32;20192;-56
2022/06/20 06:10:30;;;;;;;1.50;1.50;;;;;;;23.52;61.82;94907.31;4377939;32;20184;-56
2022/06/20 06:13:09;;;;;;;2.57;2.47;;;;;;;23.44;62.07;94911.94;4379216;32;20188;-57
2022/06/20 06:18:46;;;;;;;1.07;1.07;;;;;;;23.37;62.38;94924.69;4366013;32;21934;-55
2022/06/20 06:21:12;;;;;;;2.57;2.37;;;;;;;23.42;62.51;94929.72;4372206;32;20184;-55
2022/06/20 06:23:39;;;;;;;1.37;1.37;;;;;;;23.40;62.59;94922.00;4372267;32;20177;-56
2022/06/20 06:26:11;;;;;;;1.47;1.37;;;;;;;23.53;61.54;94933.25;4377109;32;20188;-55
2022/06/20 06:28:39;;;;;;;2.40;2.20;;;;;;;23.51;62.49;94944.41;4374104;32;20281;-62
2022/06/20 06:31:38;;;;;;;1.20;1.20;;;;;;;23.83;59.58;94938.28;4372733;32;20209;-62
2022/06/20 06:34:13;;;;;;;2.50;1.80;;;;;;;24.04;60.39;94934.81;4376320;32;20201;-64
2022/06/20 06:36:42;;;;;;;2.73;2.63;;;;;;;24.06;60.83;94946.03;4368446;32;20207;-63
2022/06/20 06:39:32;;;;;;;1.63;1.53;;;;;;;24.15;60.46;94949.09;4378831;32;20211;-65
2022/06/20 06:42:02;;;;;;;2.03;1.93;;;;;;;24.21;60.32;94958.41;4373970;32;20184;-63
2022/06/20 06:44:37;;;;;;;4.40;3.87;;;;;;;24.33;60.01;94947.94;4381699;32;20173;-62
2022/06/20 06:47:03;;;;;;;1.97;1.87;;;;;;;24.40;60.22;94958.00;4367396;32;20180;-62
2022/06/20 06:49:50;;;;;;;2.47;2.37;;;;;;;24.50;59.38;94962.66;4378912;32;20206;-63
2022/06/20 06:52:38;;;;;;;4.27;2.30;;;;;;;24.52;59.47;94967.69;4375374;32;20184;-63
2022/06/20 06:55:35;;;;;;;2.93;2.37;;;;;;;24.47;60.45;94965.38;4377772;32;20189;-63
2022/06/20 06:58:24;;;;;;;1.73;1.63;;;;;;;24.49;60.93;94985.50;4375044;32;20251;-63
2022/06/20 07:01:07;;;;;;;2.53;2.33;;;;;;;24.46;60.26;94980.09;4374054;32;20298;-62
2022/06/20 07:03:58;;;;;;;2.37;2.20;;;;;;;24.48;60.05;94981.25;4375352;32;20180;-62
2022/06/20 07:06:30;;;;;;;2.90;2.70;;;;;;;24.44;60.27;94988.63;4364006;32;20326;-63
2022/06/20 07:09:06;;;;;;;1.67;1.57;;;;;;;24.40;60.03;94982.41;4382520;32;20270;-63
2022/06/20 07:11:35;;;;;;;2.10;2.00;;;;;;;24.56;58.50;94987.41;4371798;32;20180;-63
2022/06/20 07:14:15;;;;;;;1.97;1.87;;;;;;;24.75;58.56;94989.69;4377679;32;20243;-65
2022/06/20 07:16:57;;;;;;;2.00;2.00;;;;;;;25.08;57.91;94987.69;4377926;32;20222;-63
2022/06/20 07:19:26;;;;;;;1.83;1.73;;;;;;;25.23;56.72;94998.09;4379097;32;20184;-63
2022/06/20 07:21:54;;;;;;;2.50;2.30;;;;;;;25.15;56.38;94993.09;4373992;32;20188;-63
2022/06/20 07:24:24;;;;;;;2.47;2.27;;;;;;;25.01;56.13;94999.34;4372186;32;20239;-63
2022/06/20 07:27:13;;;;;;;1.50;1.40;;;;;;;24.94;56.07;94994.69;4381479;32;20234;-64
2022/06/20 07:29:44;;;;;;;6.03;2.47;;;;;;;24.86;56.40;95003.25;4381866;32;20220;-63
2022/06/20 07:32:29;;;;;;;6.57;2.17;;;;;;;24.95;56.88;95000.91;4380797;32;20259;-63
2022/06/20 07:35:05;;;;;;;1.77;1.67;;;;;;;25.03;56.07;95007.88;4379185;32;20256;-64
2022/06/20 07:37:38;;;;;;;2.37;1.50;;;;;;;25.20;56.27;94992.66;4381864;32;20227;-64
2022/06/20 07:40:36;;;;;;;1.97;1.97;;;;;;;25.21;55.88;95008.56;4380095;32;20192;-63
2022/06/20 07:43:13;;;;;;;1.93;1.67;;;;;;;25.21;56.05;95005.84;4339808;32;20262;-63
2022/06/20 07:45:46;;;;;;;7.63;1.43;;;;;;;25.27;55.57;95012.44;4380581;32;20200;-62
2022/06/20 07:48:31;;;;;;;2.73;1.77;;;;;;;25.42;54.43;95012.34;4370692;32;20185;-63
2022/06/20 07:51:21;;;;;;;1.90;1.80;;;;;;;25.57;54.39;95013.81;4365984;32;20180;-62
2022/06/20 07:53:58;;;;;;;3.40;2.60;;;;;;;25.83;53.82;95005.12;4368360;32;20195;-63
2022/06/20 07:56:37;;;;;;;2.20;2.10;;;;;;;25.90;53.79;95010.53;4377990;32;20180;-62
2022/06/20 07:59:18;;;;;;;2.67;1.93;;;;;;;25.87;54.31;95016.00;4376601;32;20188;-63
2022/06/20 08:01:51;;;;;;;1.63;1.60;;;;;;;25.87;54.74;95016.78;4375743;32;20197;-63
2022/06/20 08:04:27;;;;;;;2.20;2.10;;;;;;;25.91;54.67;95017.53;4378796;32;20247;-63
2022/06/20 08:07:10;;;;;;;9.80;2.93;;;;;;;25.78;55.42;95015.66;4369945;32;20180;-64
2022/06/20 08:09:51;;;;;;;3.73;1.93;;;;;;;25.77;55.39;95022.28;4362720;32;20197;-64
2022/06/20 08:12:36;;;;;;;3.10;2.90;;;;;;;25.77;55.28;95023.06;4375943;32;20177;-63
2022/06/20 08:15:11;;;;;;;10.60;2.87;;;;;;;25.74;56.05;95023.09;4379206;32;20185;-64
2022/06/20 08:17:37;;;;;;;2.10;1.50;;;;;;;25.74;54.48;95029.28;4380782;32;20196;-62
2022/06/20 08:20:04;;;;;;;2.60;2.40;;;;;;;25.78;54.00;95029.25;4386333;32;20176;-64
2022/06/20 08:23:23;;;;;;;1.47;1.47;;;;;;;25.75;53.77;95036.28;4370931;32;20212;-65
2022/06/20 08:26:15;;;;;;;2.97;2.50;;;;;;;25.77;53.49;95039.37;4353825;32;20185;-65
2022/06/20 08:28:49;;;;;;;2.10;2.00;;;;;;;25.83;53.31;95035.03;4366591;32;20181;-65
2022/06/20 08:31:28;;;;;;;1.50;1.50;;;;;;;25.87;53.86;95043.19;4382828;32;20211;-65
2022/06/20 08:34:03;;;;;;;2.07;1.97;;;;;;;25.90;53.13;95043.16;4388148;32;20214;-63
2022/06/20 08:36:47;;;;;;;1.77;1.67;;;;;;;26.02;53.09;95050.06;4367347;32;20194;-65
2022/06/20 08:39:19;;;;;;;2.87;2.20;;;;;;;26.25;51.00;95052.22;4373266;32;20203;-65
2022/06/20 08:41:50;;;;;;;1.60;1.50;;;;;;;26.44;49.70;95051.72;4376399;32;20202;-65
2022/06/20 08:44:45;;;;;;;2.03;1.93;;;;;;;26.46;51.14;95052.09;4385444;32;20188;-65
2022/06/20 08:47:36;;;;;;;0.97;0.97;;;;;;;26.43;50.17;95052.88;4367748;32;20228;-64
2022/06/20 08:50:25;;;;;;;1.63;1.53;;;;;;;26.38;50.74;95061.50;4365848;32;20240;-65
2022/06/20 08:53:08;;;;;;;2.37;2.10;;;;;;;26.30;50.82;95066.22;4383692;32;20195;-64
2022/06/20 08:55:58;;;;;;;2.20;1.73;;;;;;;26.32;48.89;95057.66;4388411;32;20200;-66
2022/06/20 08:58:58;;;;;;;1.77;1.70;;;;;;;26.32;48.56;95063.09;4383017;32;20188;-63
2022/06/20 09:01:44;;;;;;;2.97;1.97;;;;;;;26.31;49.78;95067.75;4388829;32;20185;-63
2022/06/20 09:04:13;;;;;;;2.30;2.10;;;;;;;26.27;49.61;95056.09;4372243;32;20203;-64
2022/06/20 09:06:55;;;;;;;1.50;1.47;;;;;;;26.25;50.20;95054.94;4381301;32;20310;-65
2022/06/20 09:09:39;;;;;;;1.83;1.73;;;;;;;26.25;50.69;95063.09;4394094;32;20232;-65
2022/06/20 09:12:07;;;;;;;1.43;1.43;;;;;;;26.32;49.97;95061.16;4367417;32;20192;-63
2022/06/20 09:14:58;;;;;;;1.60;1.50;;;;;;;26.48;50.31;95060.63;4377101;32;20236;-63
2022/06/20 09:17:59;;;;;;;2.00;1.90;;;;;;;26.50;50.42;95061.00;4374873;32;20252;-63
2022/06/20 09:20:52;;;;;;;1.70;1.60;;;;;;;26.75;48.42;95062.72;4387373;32;20176;-63
2022/06/20 09:23:37;;;;;;;2.27;2.10;;;;;;;26.73;46.16;95070.53;4375002;32;20189;-63
2022/06/20 09:26:30;;;;;;;4.37;1.20;;;;;;;26.58;46.52;95067.94;4379461;32;20195;-64
2022/06/20 09:29:38;;;;;;;1.17;1.17;;;;;;;26.55;47.81;95060.56;4381062;32;20180;-64
2022/06/20 09:32:23;;;;;;;1.70;1.57;;;;;;;26.72;46.68;95063.53;4371045;32;20207;-66
2022/06/20 09:35:01;;;;;;;1.53;1.43;;;;;;;26.79;47.44;95063.47;4393283;32;20183;-63
2022/06/20 09:37:44;;;;;;;6.73;1.87;;;;;;;27.00;46.29;95047.72;4388226;32;20176;-64
2022/06/20 09:40:10;;;;;;;0.63;0.63;;;;;;;27.03;46.26;95044.16;4386250;32;20195;-63
2022/06/20 09:43:04;;;;;;;7.40;1.93;;;;;;;27.17;46.54;95051.41;4378234;32;20196;-65
2022/06/20 09:45:49;;;;;;;1.43;1.33;;;;;;;27.31;46.04;95053.19;4375226;32;20197;-61
2022/06/20 09:48:36;;;;;;;1.37;1.30;;;;;;;27.40;45.09;95058.16;4368300;32;20189;-62
2022/06/20 09:51:26;;;;;;;2.57;2.10;;;;;;;27.26;46.57;95048.19;4387539;32;20226;-60
2022/06/20 09:54:12;;;;;;;1.23;1.23;;;;;;;27.35;46.50;95060.16;4380685;32;20255;-63
2022/06/20 09:57:01;;;;;;;1.43;1.43;;;;;;;27.40;45.57;95055.44;4383070;32;20206;-62
2022/06/20 09:59:48;;;;;;;3.30;2.23;;;;;;;27.23;46.21;95055.22;4366746;32;20211;-64
2022/06/20 10:02:25;;;;;;;2.27;1.37;;;;;;;27.03;46.17;95052.31;4384423;32;20223;-62
2022/06/20 10:05:15;;;;;;;1.07;0.97;;;;;;;26.93;46.65;95057.88;4379918;32;20242;-63
2022/06/20 10:08:18;;;;;;;1.93;0.90;;;;;;;26.83;46.94;95058.75;4383597;32;20258;-63
2022/06/20 10:10:53;;;;;;;1.17;1.17;;;;;;;26.79;47.24;95055.31;4367446;32;20203;-62
2022/06/20 10:13:31;;;;;;;1.40;1.40;;;;;;;26.83;46.84;95047.84;4371759;32;20193;-62
2022/06/20 10:16:26;;;;;;;2.43;1.67;;;;;;;26.73;47.00;95049.50;4366066;32;20203;-62
2022/06/20 10:19:14;;;;;;;1.73;1.67;;;;;;;26.66;46.36;95044.91;4371467;32;20228;-66
2022/06/20 10:21:59;;;;;;;9.43;2.00;;;;;;;26.64;45.44;95051.91;4383871;32;20251;-65
2022/06/20 10:24:46;;;;;;;1.60;1.03;;;;;;;26.66;45.73;95041.41;4377945;32;20188;-65
2022/06/20 10:27:51;;;;;;;2.00;1.20;;;;;;;26.63;45.25;95044.94;4378236;32;20184;-64
2022/06/20 10:30:49;;;;;;;4.40;1.33;;;;;;;26.57;44.78;95047.34;4360911;32;20199;-64
2022/06/20 10:33:24;;;;;;;1.10;1.10;;;;;;;26.55;45.29;95038.03;4377773;32;20200;-63
2022/06/20 10:36:17;;;;;;;2.80;0.93;;;;;;;26.40;45.63;95037.34;4383317;32;20184;-65
2022/06/20 10:39:02;;;;;;;0.60;0.60;;;;;;;26.47;45.43;95033.81;4382177;32;20219;-65
2022/06/20 10:41:49;;;;;;;1.60;1.53;;;;;;;26.53;46.36;95038.44;4375340;32;20189;-65
2022/06/20 10:44:25;;;;;;;1.00;1.00;;;;;;;26.50;47.42;95036.50;4365950;32;20193;-64
2022/06/20 10:47:13;;;;;;;1.30;1.30;;;;;;;26.58;46.81;95032.56;4370405;32;20207;-64
2022/06/20 10:49:55;;;;;;;1.53;1.43;;;;;;;26.76;46.83;95031.59;4386217;32;20334;-64
2022/06/20 10:52:58;;;;;;;1.20;1.20;;;;;;;26.96;45.48;95035.31;4365337;32;20192;-64
2022/06/20 10:55:36;;;;;;;1.80;1.50;;;;;;;27.12;45.29;95035.50;4374523;32;20188;-64
2022/06/20 10:58:19;;;;;;;1.53;1.43;;;;;;;27.21;44.86;95027.62;4383593;32;20228;-64
2022/06/20 11:00:52;;;;;;;1.40;1.30;;;;;;;27.30;45.22;95027.12;4373700;32;20192;-64
2022/06/20 11:03:43;;;;;;;1.80;1.70;;;;;;;27.36;45.22;95020.81;4393550;32;20177;-64
2022/06/20 11:06:41;;;;;;;0.93;0.93;;;;;;;27.42;44.62;95032.03;4366783;32;20264;-63
2022/06/20 11:09:20;;;;;;;4.10;1.60;;;;;;;27.40;44.57;95015.31;4370285;32;20245;-64
2022/06/20 11:12:10;;;;;;;4.03;1.70;;;;;;;27.60;44.54;95013.53;4372745;32;20203;-64
2022/06/20 11:14:53;;;;;;;0.73;0.73;;;;;;;27.74;43.57;95037.09;4380748;32;20201;-63
2022/06/20 11:17:52;;;;;;;1.63;0.87;;;;;;;27.77;42.56;95032.78;4372628;32;20257;-64
2022/06/20 11:20:55;;;;;;;1.20;1.10;;;;;;;27.69;41.42;95019.22;4369364;32;20189;-64
2022/06/20 11:23:46;;;;;;;1.50;1.33;;;;;;;27.67;41.62;95020.81;4387681;32;20207;-53
2022/06/20 11:26:52;;;;;;;2.07;1.10;;;;;;;26.64;49.92;95011.88;4393002;32;20184;-52
2022/06/20 11:29:45;;;;;;;1.27;1.17;;;;;;;25.83;49.89;95004.38;4378139;32;20210;-55
2022/06/20 11:32:25;;;;;;;4.57;2.20;;;;;;;25.52;50.06;94995.22;4378427;32;20192;-52
2022/06/20 11:34:59;;;;;;;3.57;1.73;;;;;;;25.65;49.74;95002.53;4383026;32;20187;-51
2022/06/20 11:37:24;;;;;;;1.47;1.37;;;;;;;25.65;48.87;95001.75;4374429;32;20226;-53
2022/06/20 11:39:52;;;;;;;1.40;1.40;;;;;;;25.37;50.70;95013.53;4379554;32;20192;-51
2022/06/20 11:42:40;;;;;;;2.00;1.17;;;;;;;25.24;50.46;95007.78;4381950;32;20200;-51
2022/06/20 11:45:27;;;;;;;2.00;1.90;;;;;;;25.34;49.51;95012.41;4373725;32;20192;-55
2022/06/20 11:48:31;;;;;;;1.13;0.87;;;;;;;25.43;48.95;95005.75;4374248;32;20211;-54
2022/06/20 11:51:30;;;;;;;1.00;1.00;;;;;;;25.38;49.59;95006.16;4373719;32;20199;-54
2022/06/20 11:54:14;;;;;;;2.13;2.03;;;;;;;25.47;49.61;95007.28;4367149;32;20181;-53
2022/06/20 11:57:09;;;;;;;1.17;1.17;;;;;;;25.49;49.77;94998.72;4373348;32;20230;-54
2022/06/20 11:59:59;;;;;;;2.00;1.63;;;;;;;25.63;49.43;95004.88;4377871;32;20196;-57
2022/06/20 12:02:31;;;;;;;1.40;1.40;;;;;;;25.49;49.48;94996.00;4366312;32;20192;-63
2022/06/20 12:05:20;;;;;;;1.77;1.67;;;;;;;25.99;47.65;94991.81;4376799;32;20208;-62
2022/06/20 12:08:06;;;;;;;14.90;1.10;;;;;;;26.57;46.46;94992.13;4378336;32;20235;-63
2022/06/20 12:10:39;;;;;;;2.67;1.90;;;;;;;26.85;45.92;95001.94;4370934;32;20227;-64
2022/06/20 12:13:38;;;;;;;1.50;1.50;;;;;;;26.91;45.53;94994.88;4382009;32;20181;-63
2022/06/20 12:16:26;;;;;;;1.43;1.30;;;;;;;26.91;45.51;94998.38;4376222;32;20260;-62
2022/06/20 12:25:26;;;;;;;1.07;1.07;;;;;;;26.84;46.44;94986.78;4377305;32;20229;-65
2022/06/20 12:27:52;;;;;;;1.83;1.73;;;;;;;26.79;46.89;94988.00;4383757;32;20226;-65
2022/06/20 12:30:19;;;;;;;1.43;1.33;;;;;;;26.82;46.87;94980.94;4381623;32;20192;-65
2022/06/20 12:32:52;;;;;;;1.40;1.30;;;;;;;26.82;46.71;94986.41;4382861;32;20188;-65
2022/06/20 12:35:43;;;;;;;1.67;1.57;;;;;;;26.90;46.24;94976.97;4385635;32;20189;-66
2022/06/20 12:38:40;;;;;;;0.90;0.90;;;;;;;26.92;46.69;94974.62;4368114;32;20207;-66
2022/06/20 12:41:19;;;;;;;2.30;1.30;;;;;;;27.11;45.93;94976.75;4360654;32;20185;-65